createdAt,value
2023-04-12T00:00:21.028Z,9.50
2023-04-12T00:02:54.388Z,9.40
2023-04-12T00:05:23.351Z,9.40
2023-04-12T00:07:53.172Z,9.30
2023-04-12T00:10:20.114Z,9.30
2023-04-12T00:12:47.456Z,9.30
2023-04-12T00:15:17.713Z,9.20
2023-04-12T00:17:45.234Z,9.10
2023-04-12T00:20:13.118Z,9.00
2023-04-12T00:22:41.595Z,9.00
2023-04-12T00:25:10.390Z,8.90
2023-04-12T00:27:37.975Z,8.90
2023-04-12T00:30:06.028Z,8.80
2023-04-12T00:32:34.027Z,8.80
2023-04-12T00:35:01.113Z,8.80
2023-04-12T00:37:28.298Z,8.70
2023-04-12T00:39:55.111Z,8.70
2023-04-12T00:42:22.845Z,8.70
2023-04-12T00:44:49.820Z,8.60
2023-04-12T00:47:16.664Z,8.60
2023-04-12T00:49:48.864Z,8.60
2023-04-12T00:52:18.445Z,8.60
2023-04-12T00:54:45.415Z,8.60
2023-04-12T00:57:13.977Z,8.50
2023-04-12T00:59:41.143Z,8.50
2023-04-12T01:02:08.209Z,8.50
2023-04-12T01:04:38.047Z,8.50
2023-04-12T01:07:25.308Z,8.50
2023-04-12T01:10:10.085Z,8.50
2023-04-12T01:12:50.602Z,8.50
2023-04-12T01:15:17.722Z,8.50
2023-04-12T01:18:24.476Z,8.40
2023-04-12T01:21:01.872Z,8.40
2023-04-12T01:23:59.272Z,8.50
2023-04-12T01:26:39.633Z,8.50
2023-04-12T01:29:15.542Z,8.50
2023-04-12T01:31:54.862Z,8.50
2023-04-12T01:34:25.060Z,8.40
2023-04-12T01:36:52.351Z,8.40
2023-04-12T01:39:20.029Z,8.50
2023-04-12T01:41:49.292Z,8.40
2023-04-12T01:44:17.237Z,8.50
2023-04-12T01:46:47.684Z,8.50
2023-04-12T01:49:16.076Z,8.50
2023-04-12T01:52:01.448Z,8.50
2023-04-12T01:54:31.087Z,8.50
2023-04-12T01:57:01.358Z,8.50
2023-04-12T01:59:37.467Z,8.50
2023-04-12T02:02:04.497Z,8.50
2023-04-12T02:04:33.962Z,8.40
2023-04-12T02:07:04.249Z,8.50
2023-04-12T02:09:36.277Z,8.40
2023-04-12T02:12:03.144Z,8.40
2023-04-12T02:14:31.645Z,8.40
2023-04-12T02:17:00.216Z,8.40
2023-04-12T02:19:27.526Z,8.30
2023-04-12T02:21:54.492Z,8.30
2023-04-12T02:24:21.540Z,8.30
2023-04-12T02:26:50.005Z,8.30
2023-04-12T02:29:17.611Z,8.30
2023-04-12T02:31:44.574Z,8.30
2023-04-12T02:34:14.038Z,8.30
2023-04-12T02:36:40.937Z,8.20
2023-04-12T02:39:07.919Z,8.20
2023-04-12T02:41:34.978Z,8.20
2023-04-12T02:44:02.379Z,8.20
2023-04-12T02:46:29.506Z,8.20
2023-04-12T02:48:56.925Z,8.10
2023-04-12T02:51:23.857Z,8.20
2023-04-12T02:53:52.439Z,8.20
2023-04-12T02:56:19.461Z,8.10
2023-04-12T02:58:46.431Z,8.10
2023-04-12T03:01:14.709Z,8.10
2023-04-12T03:03:42.034Z,8.10
2023-04-12T03:06:10.890Z,8.00
2023-04-12T03:08:38.811Z,8.10
2023-04-12T03:11:06.025Z,8.10
2023-04-12T03:13:32.899Z,8.00
2023-04-12T03:16:01.841Z,8.00
2023-04-12T03:18:28.850Z,8.00
2023-04-12T03:20:56.264Z,8.00
2023-04-12T03:23:23.411Z,8.00
2023-04-12T03:25:50.886Z,8.00
2023-04-12T03:28:17.976Z,8.00
2023-04-12T03:30:44.890Z,7.90
2023-04-12T03:33:11.873Z,7.90
2023-04-12T03:35:40.337Z,7.90
2023-04-12T03:38:07.229Z,7.90
2023-04-12T03:40:34.043Z,7.90
2023-04-12T03:43:02.077Z,7.90
2023-04-12T03:45:29.196Z,7.80
2023-04-12T03:47:56.085Z,7.80
2023-04-12T03:50:23.083Z,7.80
2023-04-12T03:52:50.555Z,7.80
2023-04-12T03:55:18.566Z,7.80
2023-04-12T03:57:47.056Z,7.80
2023-04-12T04:00:14.658Z,7.80
2023-04-12T04:02:41.665Z,7.80
2023-04-12T04:05:09.865Z,7.80
2023-04-12T04:07:36.827Z,7.80
2023-04-12T04:10:05.671Z,7.80
2023-04-12T04:12:32.562Z,7.80
2023-04-12T04:15:00.615Z,7.80
2023-04-12T04:17:27.408Z,7.80
2023-04-12T04:19:54.868Z,7.80
2023-04-12T04:22:22.827Z,7.70
2023-04-12T04:24:51.819Z,7.70
2023-04-12T04:27:20.578Z,7.70
2023-04-12T04:29:47.533Z,7.70
2023-04-12T04:32:15.826Z,7.80
2023-04-12T04:34:43.593Z,7.80
2023-04-12T04:37:10.636Z,7.80
2023-04-12T04:39:37.486Z,7.80
2023-04-12T04:42:09.068Z,7.80
2023-04-12T04:44:36.243Z,7.80
2023-04-12T04:47:03.590Z,7.80
2023-04-12T04:49:30.664Z,7.80
2023-04-12T04:51:57.714Z,7.80
2023-04-12T04:54:24.596Z,7.80
2023-04-12T04:56:51.430Z,7.80
2023-04-12T04:59:18.530Z,7.80
2023-04-12T05:01:45.846Z,7.80
2023-04-12T05:04:12.733Z,7.90
2023-04-12T05:06:39.786Z,7.80
2023-04-12T05:09:06.548Z,7.90
2023-04-12T05:11:33.365Z,7.90
2023-04-12T05:14:00.588Z,7.90
2023-04-12T05:16:27.403Z,7.90
2023-04-12T05:18:54.344Z,7.90
2023-04-12T05:21:23.253Z,7.90
2023-04-12T05:23:51.433Z,7.90
2023-04-12T05:26:18.502Z,7.90
2023-04-12T05:28:45.975Z,7.90
2023-04-12T05:31:13.993Z,7.90
2023-04-12T05:33:41.011Z,7.90
2023-04-12T05:36:08.094Z,8.00
2023-04-12T05:38:34.907Z,8.00
2023-04-12T05:41:04.689Z,8.00
2023-04-12T05:43:32.998Z,8.00
2023-04-12T05:45:59.951Z,8.00
2023-04-12T05:51:12.448Z,8.00
2023-04-12T05:53:39.273Z,8.10
2023-04-12T05:56:06.620Z,8.10
2023-04-12T07:06:25.954Z,8.80
2023-04-12T07:08:53.382Z,8.90
2023-04-12T07:11:23.930Z,8.90
2023-04-12T07:13:51.621Z,8.90
2023-04-12T07:16:18.770Z,9.00
2023-04-12T07:18:45.706Z,9.10
2023-04-12T07:21:17.522Z,9.10
2023-04-12T07:23:44.809Z,9.20
2023-04-12T07:26:11.641Z,9.20
2023-04-12T07:28:39.135Z,9.20
2023-04-12T07:31:07.569Z,9.20
2023-04-12T07:33:36.292Z,9.20
2023-04-12T07:36:04.637Z,9.30
2023-04-12T07:38:31.606Z,9.30
2023-04-12T07:40:58.744Z,9.30
2023-04-12T07:43:25.920Z,9.30
2023-04-12T07:45:55.892Z,9.30
2023-04-12T07:48:23.155Z,9.40
2023-04-12T07:50:50.691Z,9.40
2023-04-12T07:53:24.393Z,9.50
2023-04-12T07:55:51.609Z,9.60
2023-04-12T07:58:19.835Z,9.60
2023-04-12T08:00:47.108Z,9.80
2023-04-12T08:03:16.116Z,10.00
2023-04-12T08:05:44.350Z,10.00
2023-04-12T08:08:11.968Z,10.10
2023-04-12T08:10:39.536Z,10.10
2023-04-12T08:13:06.862Z,10.10
2023-04-12T08:15:33.890Z,10.20
2023-04-12T08:18:01.465Z,10.40
2023-04-12T08:20:28.308Z,10.50
2023-04-12T08:22:55.382Z,10.60
2023-04-12T08:25:22.510Z,10.70
2023-04-12T08:27:50.783Z,10.70
2023-04-12T08:30:18.513Z,10.80
2023-04-12T08:32:45.790Z,11.10
2023-04-12T08:35:12.713Z,12.00
2023-04-12T08:37:39.877Z,12.50
2023-04-12T08:40:08.185Z,13.30
2023-04-12T08:42:37.413Z,14.10
2023-04-12T08:45:12.024Z,14.50
2023-04-12T08:47:44.043Z,15.10
2023-04-12T08:50:17.301Z,15.90
2023-04-12T08:52:44.390Z,15.80
2023-04-12T08:55:12.925Z,15.20
2023-04-12T08:57:41.437Z,15.00
2023-04-12T09:00:09.947Z,14.80
2023-04-12T09:02:38.463Z,14.50
2023-04-12T09:05:07.067Z,14.40
2023-04-12T09:07:34.332Z,14.80
2023-04-12T09:10:01.506Z,15.80
2023-04-12T09:12:28.498Z,17.30
2023-04-12T09:15:13.441Z,18.20
2023-04-12T09:17:42.047Z,18.30
2023-04-12T09:20:18.091Z,17.90
2023-04-12T09:22:46.694Z,17.50
2023-04-12T09:25:17.379Z,17.20
2023-04-12T09:27:51.111Z,16.60
2023-04-12T09:30:20.250Z,16.30
2023-04-12T09:32:50.786Z,15.90
2023-04-12T09:35:17.963Z,15.70
2023-04-12T09:37:45.002Z,15.70
2023-04-12T09:40:12.208Z,15.80
2023-04-12T09:42:55.335Z,15.70
2023-04-12T09:45:28.455Z,15.40
2023-04-12T09:47:56.209Z,15.10
2023-04-12T09:50:28.712Z,15.20
2023-04-12T09:52:57.190Z,15.30
2023-04-12T09:55:25.880Z,15.10
2023-04-12T09:57:54.116Z,15.00
2023-04-12T10:00:23.558Z,15.00
2023-04-12T10:02:53.173Z,15.40
2023-04-12T10:05:25.166Z,15.90
2023-04-12T10:07:53.135Z,16.60
2023-04-12T10:10:20.925Z,17.10
2023-04-12T10:12:49.748Z,17.70
2023-04-12T10:15:18.302Z,18.60
2023-04-12T10:17:47.986Z,18.60
2023-04-12T10:20:17.201Z,19.00
2023-04-12T10:22:51.896Z,18.90
2023-04-12T10:25:24.108Z,18.40
2023-04-12T10:27:51.679Z,17.90
2023-04-12T10:30:23.127Z,17.50
2023-04-12T10:33:11.700Z,17.30
2023-04-12T10:36:03.977Z,17.50
2023-04-12T10:38:37.401Z,19.10
2023-04-12T10:41:13.539Z,18.90
2023-04-12T10:43:51.311Z,18.10
2023-04-12T10:46:39.896Z,17.30
2023-04-12T10:49:14.685Z,16.60
2023-04-12T10:52:04.139Z,16.40
2023-04-12T10:54:35.295Z,16.50
2023-04-12T10:57:04.869Z,16.80
2023-04-12T10:59:54.545Z,17.00
2023-04-12T11:02:21.872Z,17.10
2023-04-12T11:05:21.247Z,16.80
2023-04-12T11:07:53.356Z,16.20
2023-04-12T11:10:21.787Z,15.70
2023-04-12T11:12:50.485Z,15.30
2023-04-12T11:15:18.138Z,14.90
2023-04-12T11:17:54.464Z,14.70
2023-04-12T11:20:21.580Z,14.60
2023-04-12T11:22:50.359Z,14.60
2023-04-12T11:25:18.292Z,14.50
2023-04-12T11:27:53.000Z,14.50
2023-04-12T11:30:20.672Z,14.40
2023-04-12T11:32:47.832Z,14.50
2023-04-12T11:35:20.419Z,15.10
2023-04-12T11:37:47.780Z,15.90
2023-04-12T11:40:14.813Z,16.20
2023-04-12T11:42:41.944Z,16.50
2023-04-12T11:45:16.607Z,16.50
2023-04-12T11:47:46.240Z,16.20
2023-04-12T11:55:34.156Z,16.00
2023-04-12T11:58:00.978Z,16.00
2023-04-12T12:00:29.541Z,15.90
2023-04-12T12:03:07.819Z,16.00
2023-04-12T12:05:41.070Z,16.00
2023-04-12T12:08:11.531Z,16.00
2023-04-12T12:10:52.386Z,16.10
2023-04-12T12:13:27.025Z,16.70
2023-04-12T12:16:00.261Z,16.80
2023-04-12T12:18:28.862Z,16.70
2023-04-12T12:20:56.288Z,17.00
2023-04-12T12:23:32.711Z,17.30
2023-04-12T12:26:17.502Z,17.90
2023-04-12T12:28:53.254Z,17.90
2023-04-12T12:31:22.249Z,18.00
2023-04-12T12:33:52.721Z,18.00
2023-04-12T12:36:23.238Z,17.70
2023-04-12T12:38:53.695Z,17.30
2023-04-12T12:41:22.157Z,17.00
2023-04-12T12:43:51.032Z,16.90
2023-04-12T12:46:19.406Z,17.00
2023-04-12T12:48:47.935Z,17.60
2023-04-12T12:51:20.386Z,17.70
2023-04-12T12:53:48.408Z,17.30
2023-04-12T12:56:16.030Z,17.00
2023-04-12T12:58:46.029Z,16.70
2023-04-12T13:01:12.894Z,16.30
2023-04-12T13:03:39.805Z,16.10
2023-04-12T13:06:07.654Z,16.00
2023-04-12T13:08:37.192Z,15.80
2023-04-12T13:11:06.417Z,15.80
2023-04-12T13:13:33.301Z,15.70
2023-04-12T13:16:00.229Z,15.50
2023-04-12T13:18:27.102Z,15.40
2023-04-12T13:20:55.308Z,15.40
2023-04-12T13:23:22.196Z,15.40
2023-04-12T13:25:49.001Z,15.50
2023-04-12T13:28:17.152Z,16.30
2023-04-12T13:30:43.993Z,17.40
2023-04-12T13:33:12.441Z,18.40
2023-04-12T13:35:41.967Z,18.70
2023-04-12T13:38:08.791Z,19.00
2023-04-12T13:40:35.811Z,19.10
2023-04-12T13:43:02.731Z,18.80
2023-04-12T13:45:30.584Z,18.40
2023-04-12T13:47:58.654Z,18.00
2023-04-12T13:50:27.629Z,17.70
2023-04-12T13:52:55.406Z,17.40
2023-04-12T13:55:22.488Z,17.30
2023-04-12T13:57:49.474Z,17.00
2023-04-12T14:00:19.048Z,16.70
2023-04-12T14:02:45.989Z,16.80
2023-04-12T14:05:12.799Z,17.10
2023-04-12T14:07:39.807Z,17.10
2023-04-12T14:10:07.420Z,17.00
2023-04-12T14:12:34.328Z,16.80
2023-04-12T14:15:01.616Z,16.60
2023-04-12T14:17:32.611Z,16.40
2023-04-12T14:20:00.075Z,16.10
2023-04-12T14:22:26.942Z,15.60
2023-04-12T14:24:55.890Z,15.20
2023-04-12T14:27:23.032Z,15.00
2023-04-12T14:29:51.084Z,14.80
2023-04-12T14:32:18.234Z,14.60
2023-04-12T14:34:46.684Z,14.40
2023-04-12T14:37:13.750Z,14.20
2023-04-12T14:39:40.720Z,14.20
2023-04-12T14:42:07.808Z,14.30
2023-04-12T14:44:34.848Z,14.50
2023-04-12T14:47:01.777Z,14.70
2023-04-12T14:49:32.437Z,14.70
2023-04-12T14:52:00.127Z,14.70
2023-04-12T14:54:27.041Z,14.70
2023-04-12T14:56:55.988Z,14.50
2023-04-12T14:59:23.642Z,14.50
2023-04-12T15:01:53.333Z,14.40
2023-04-12T15:04:24.596Z,14.50
2023-04-12T15:06:51.988Z,14.30
2023-04-12T15:09:18.895Z,14.20
2023-04-12T15:11:59.040Z,14.10
2023-04-12T15:14:26.552Z,14.00
2023-04-12T15:16:55.605Z,13.80
2023-04-12T15:19:24.066Z,13.60
2023-04-12T15:21:57.389Z,13.50
2023-04-12T15:24:26.303Z,13.50
2023-04-12T15:26:53.374Z,13.70
2023-04-12T15:29:22.828Z,13.60
2023-04-12T15:31:52.723Z,13.50
2023-04-12T15:34:20.257Z,13.50
2023-04-12T15:36:47.176Z,13.50
2023-04-12T15:39:15.287Z,13.60
2023-04-12T15:41:43.760Z,13.60
2023-04-12T15:44:14.334Z,13.50
2023-04-12T15:46:41.893Z,13.40
2023-04-12T15:49:09.544Z,13.40
2023-04-12T15:51:36.810Z,13.40
2023-04-12T15:54:06.172Z,13.50
2023-04-12T15:56:34.545Z,13.60
2023-04-12T15:59:01.809Z,13.70
2023-04-12T16:01:29.121Z,13.60
2023-04-12T16:03:56.374Z,13.60
2023-04-12T16:06:27.615Z,13.60
2023-04-12T16:08:55.632Z,13.60
2023-04-12T16:11:23.788Z,13.50
2023-04-12T16:13:51.498Z,13.30
2023-04-12T16:16:20.938Z,13.30
2023-04-12T16:18:51.549Z,13.50
2023-04-12T16:21:20.162Z,13.50
2023-04-12T16:23:48.623Z,13.60
2023-04-12T16:29:06.480Z,13.60
2023-04-12T16:31:33.533Z,13.60
2023-04-12T16:34:01.551Z,13.60
2023-04-12T16:36:31.671Z,13.70
2023-04-12T16:39:04.687Z,13.80
2023-04-12T16:41:31.646Z,13.80
2023-04-12T16:53:44.314Z,12.80
2023-04-12T17:07:05.078Z,12.20
2023-04-12T17:09:32.133Z,12.00
2023-04-12T17:12:07.521Z,11.50
2023-04-12T17:14:34.447Z,10.90
2023-04-12T17:22:33.395Z,10.10
2023-04-12T17:25:00.322Z,9.90
2023-04-12T17:27:29.806Z,9.80
2023-04-12T17:29:56.859Z,9.80
2023-04-12T17:32:27.933Z,9.80
2023-04-12T17:35:06.904Z,9.80
2023-04-12T17:37:42.177Z,9.90
2023-04-12T17:45:34.205Z,9.80
2023-04-12T17:50:47.220Z,9.60
2023-04-12T17:53:20.260Z,9.50
2023-04-12T17:55:48.916Z,9.40
2023-04-12T17:58:27.452Z,9.30
2023-04-12T18:01:09.646Z,9.20
2023-04-12T18:03:39.124Z,9.00
2023-04-12T18:06:08.063Z,8.90
2023-04-12T18:08:37.850Z,8.80
2023-04-12T18:11:15.101Z,8.70
2023-04-12T18:16:31.289Z,8.60
2023-04-12T18:19:09.178Z,8.50
2023-04-12T18:21:49.817Z,8.50
2023-04-12T18:24:26.146Z,8.40
2023-04-12T18:48:48.302Z,7.90
2023-04-12T19:02:22.129Z,7.60
2023-04-12T19:07:26.293Z,7.60
2023-04-12T19:09:55.803Z,7.50
2023-04-12T19:15:03.538Z,7.50
2023-04-12T19:17:33.549Z,7.40
2023-04-12T19:20:01.431Z,7.40
2023-04-12T19:22:28.989Z,7.40
2023-04-12T19:24:56.312Z,7.30
2023-04-12T19:27:23.816Z,7.30
2023-04-12T19:29:53.895Z,7.30
2023-04-12T19:32:20.961Z,7.20
2023-04-12T19:34:49.565Z,7.20
2023-04-12T19:37:25.243Z,7.20
2023-04-12T19:39:52.111Z,7.20
2023-04-12T19:42:18.967Z,7.10
2023-04-12T19:47:21.260Z,7.10
2023-04-12T19:49:49.457Z,7.10
2023-04-12T19:52:21.389Z,7.10
2023-04-12T19:54:48.486Z,7.10
2023-04-12T19:57:15.487Z,7.10
2023-04-12T19:59:47.981Z,7.10
2023-04-12T20:08:14.705Z,6.90
2023-04-12T20:10:42.579Z,6.90
2023-04-12T20:13:15.061Z,6.90
2023-04-12T20:15:45.149Z,6.90
2023-04-12T20:18:13.444Z,6.80
2023-04-12T20:20:45.053Z,6.80
2023-04-12T20:23:12.308Z,6.80
2023-04-12T20:25:41.525Z,6.80
2023-04-12T20:28:09.055Z,6.70
2023-04-12T20:30:36.785Z,6.70
2023-04-12T20:33:06.818Z,6.70
2023-04-12T20:35:33.901Z,6.70
2023-04-12T20:38:00.940Z,6.70
2023-04-12T20:40:31.840Z,6.70
2023-04-12T20:42:58.866Z,6.70
2023-04-12T20:45:25.754Z,6.70
2023-04-12T20:47:52.661Z,6.70
2023-04-12T20:50:22.476Z,6.70
2023-04-12T20:52:51.903Z,6.70
2023-04-12T20:55:19.189Z,6.70
2023-04-12T20:57:46.111Z,6.70
2023-04-12T21:00:19.278Z,6.70
2023-04-12T21:02:46.797Z,6.70
2023-04-12T21:05:17.008Z,6.70
2023-04-12T21:07:46.659Z,6.80
2023-04-12T21:10:14.045Z,6.80
2023-04-12T21:12:45.012Z,6.80
2023-04-12T21:15:12.589Z,6.80
2023-04-12T21:17:40.704Z,6.80
2023-04-12T21:20:16.167Z,6.80
2023-04-12T21:22:44.368Z,6.80
2023-04-12T21:25:13.827Z,6.90
2023-04-12T21:27:45.653Z,7.00
2023-04-12T21:30:12.928Z,7.00
2023-04-12T21:32:42.711Z,7.10
2023-04-12T21:35:11.081Z,7.10
2023-04-12T21:37:39.201Z,7.00
2023-04-12T21:40:10.233Z,7.10
2023-04-12T21:42:37.578Z,7.10
2023-04-12T21:45:05.570Z,7.10
2023-04-12T21:47:32.642Z,7.10
2023-04-12T21:49:59.661Z,7.20
2023-04-12T21:52:26.778Z,7.30
2023-04-12T21:54:54.752Z,7.30
2023-04-12T21:57:21.755Z,7.30
2023-04-12T21:59:48.648Z,7.30
2023-04-12T22:02:15.831Z,7.30
2023-04-12T22:04:46.908Z,7.40
2023-04-12T22:07:16.863Z,7.40
2023-04-12T22:09:46.626Z,7.50
2023-04-12T22:12:13.558Z,7.50
2023-04-12T22:14:46.671Z,7.60
2023-04-12T22:17:18.315Z,7.60
2023-04-12T22:19:45.321Z,7.70
2023-04-12T22:22:14.308Z,7.70
2023-04-12T22:24:41.686Z,7.70
2023-04-12T22:27:09.307Z,7.40
2023-04-12T22:29:37.593Z,7.00
2023-04-12T22:32:04.766Z,6.80
2023-04-12T22:34:32.542Z,6.60
2023-04-12T22:36:59.391Z,6.60
2023-04-12T22:39:28.065Z,6.50
2023-04-12T22:41:57.350Z,6.40
2023-04-12T22:44:25.751Z,6.40
2023-04-12T22:46:54.848Z,6.30
2023-04-12T22:49:28.660Z,6.20
2023-04-12T22:51:56.511Z,6.20
2023-04-12T22:54:24.960Z,6.00
2023-04-12T22:56:52.492Z,5.90
2023-04-12T22:59:22.378Z,5.80
2023-04-12T23:01:50.513Z,5.80
2023-04-12T23:04:17.540Z,5.70
2023-04-12T23:06:45.027Z,5.70
2023-04-12T23:09:13.053Z,5.70
2023-04-12T23:11:41.319Z,5.70
2023-04-12T23:14:09.410Z,5.70
2023-04-12T23:16:42.377Z,5.70
2023-04-12T23:19:09.598Z,5.70
2023-04-12T23:21:39.050Z,5.70
2023-04-12T23:24:06.274Z,5.70
2023-04-12T23:26:34.609Z,5.70
2023-04-12T23:29:04.072Z,5.70
2023-04-12T23:31:32.551Z,5.70
2023-04-12T23:34:02.805Z,5.70
2023-04-12T23:36:30.346Z,5.70
2023-04-12T23:39:00.174Z,5.70
2023-04-12T23:41:32.123Z,5.70
2023-04-12T23:44:00.132Z,5.70
2023-04-12T23:46:29.140Z,5.70
2023-04-12T23:48:56.148Z,5.70
2023-04-12T23:51:23.402Z,5.80
2023-04-12T23:53:50.404Z,5.80
2023-04-12T23:56:17.317Z,5.80
2023-04-12T23:58:44.253Z,5.80
